createdAt,value
2023-04-14T00:15:36.190Z,7.80
2023-04-14T00:40:50.923Z,8.00
2023-04-14T01:00:39.839Z,8.00
2023-04-14T01:31:35.804Z,7.10
2023-04-14T01:51:50.032Z,6.60
2023-04-14T02:22:09.814Z,7.50
2023-04-14T03:23:12.256Z,7.20
2023-04-14T03:58:08.863Z,7.20
2023-04-14T04:18:32.294Z,7.20
2023-04-14T04:53:53.610Z,7.60
2023-04-14T05:19:15.774Z,8.10
2023-04-14T05:40:14.535Z,8.70
2023-04-14T06:04:57.561Z,9.30
2023-04-14T06:30:18.596Z,10.00
2023-04-14T06:46:04.706Z,11.00
2023-04-14T07:36:32.965Z,12.70
2023-04-14T08:02:19.447Z,13.30
2023-04-14T08:52:42.869Z,14.10
2023-04-14T09:13:19.722Z,13.80
2023-04-14T09:33:26.709Z,14.00
2023-04-14T09:58:26.851Z,14.00
2023-04-14T10:19:03.175Z,14.30
2023-04-14T10:54:54.417Z,15.30
2023-04-14T11:20:17.892Z,14.50
2023-04-14T11:24:37.055Z,14.90
2023-04-14T11:45:24.587Z,15.30
2023-04-14T12:10:47.132Z,15.50
2023-04-14T12:46:31.391Z,16.10
2023-04-14T13:16:21.024Z,15.50
2023-04-14T13:42:15.866Z,16.70
2023-04-14T14:01:59.938Z,16.20
2023-04-14T14:33:02.663Z,16.40
2023-04-14T14:58:08.519Z,16.60
2023-04-14T15:18:35.812Z,15.70
2023-04-14T15:48:51.815Z,14.80
2023-04-14T16:09:22.581Z,14.60
2023-04-14T16:39:14.895Z,14.00
2023-04-14T17:05:16.230Z,13.50
2023-04-14T17:25:08.112Z,12.90
2023-04-14T17:45:37.397Z,12.60
2023-04-14T18:36:22.988Z,11.90
2023-04-14T19:06:49.746Z,11.60
2023-04-14T19:37:28.847Z,11.70
2023-04-14T19:41:48.766Z,11.60
2023-04-14T20:02:36.508Z,11.40
2023-04-14T20:23:01.686Z,11.20
2023-04-14T20:48:15.528Z,11.20
2023-04-14T21:48:39.205Z,10.80
2023-04-14T22:09:16.932Z,10.90
2023-04-14T22:34:40.922Z,10.80
2023-04-14T23:00:17.311Z,10.90
2023-04-14T23:30:06.676Z,10.80
2023-04-14T23:55:24.932Z,10.80
